createdAt,value
2022-12-31T00:00:16.525Z,32.08
2022-12-31T00:00:51.427Z,33.50
2022-12-31T00:01:25.140Z,33.30
2022-12-31T00:01:57.886Z,25.40
2022-12-31T00:02:33.117Z,23.50
2022-12-31T00:03:05.432Z,28.15
2022-12-31T00:03:37.998Z,27.25
2022-12-31T00:04:12.749Z,20.77
2022-12-31T00:04:45.052Z,27.83
2022-12-31T00:05:17.341Z,29.05
2022-12-31T00:05:52.072Z,31.20
2022-12-31T00:06:26.592Z,33.70
2022-12-31T00:06:58.866Z,30.88
2022-12-31T00:08:05.047Z,33.17
2022-12-31T00:08:37.209Z,32.50
2022-12-31T00:09:13.078Z,25.60
2022-12-31T00:09:45.476Z,29.38
2022-12-31T00:10:17.763Z,33.78
2022-12-31T00:10:52.613Z,31.50
2022-12-31T00:11:26.031Z,30.48
2022-12-31T00:11:58.218Z,22.88
2022-12-31T00:12:32.979Z,34.33
2022-12-31T00:13:07.900Z,42.28
2022-12-31T00:13:43.235Z,37.38
2022-12-31T00:14:16.095Z,19.40
2022-12-31T00:14:48.224Z,35.65
2022-12-31T00:15:23.251Z,25.77
2022-12-31T00:15:55.336Z,29.33
2022-12-31T00:16:31.868Z,28.17
2022-12-31T00:17:04.128Z,35.05
2022-12-31T00:17:36.365Z,44.17
2022-12-31T00:18:11.759Z,30.10
2022-12-31T00:18:44.363Z,34.90
2022-12-31T00:19:16.447Z,28.85
2022-12-31T00:19:51.177Z,49.92
2022-12-31T00:20:23.344Z,35.30
2022-12-31T00:20:55.727Z,33.30
2022-12-31T00:21:32.485Z,27.48
2022-12-31T00:22:04.642Z,32.22
2022-12-31T00:22:38.069Z,33.00
2022-12-31T00:23:13.442Z,22.33
2022-12-31T00:23:46.082Z,31.73
2022-12-31T00:24:20.748Z,30.55
2022-12-31T00:24:53.299Z,30.83
2022-12-31T00:25:25.625Z,36.45
2022-12-31T00:26:04.441Z,32.45
2022-12-31T00:26:37.033Z,33.40
2022-12-31T00:27:11.809Z,28.23
2022-12-31T00:27:43.898Z,34.80
2022-12-31T00:28:18.580Z,31.98
2022-12-31T00:28:54.195Z,55.60
2022-12-31T00:29:26.298Z,29.10
2022-12-31T00:30:04.245Z,38.25
2022-12-31T00:30:39.552Z,35.97
2022-12-31T00:31:13.604Z,33.80
2022-12-31T00:31:45.758Z,31.60
2022-12-31T00:32:20.536Z,33.88
2022-12-31T00:32:53.524Z,37.22
2022-12-31T00:33:25.664Z,31.83
2022-12-31T00:34:00.752Z,36.80
2022-12-31T00:34:32.855Z,32.90
2022-12-31T00:35:06.177Z,31.85
2022-12-31T00:35:40.849Z,32.28
2022-12-31T00:36:15.293Z,28.48
2022-12-31T00:36:47.454Z,36.40
2022-12-31T00:37:22.137Z,29.88
2022-12-31T00:37:54.333Z,25.85
2022-12-31T00:38:26.404Z,30.13
2022-12-31T00:39:02.727Z,40.38
2022-12-31T00:39:34.901Z,33.13
2022-12-31T00:40:09.030Z,38.65
2022-12-31T00:40:43.722Z,25.45
2022-12-31T00:41:16.913Z,32.75
2022-12-31T00:41:51.602Z,33.47
2022-12-31T00:42:23.766Z,31.52
2022-12-31T00:42:56.003Z,29.63
2022-12-31T00:43:30.782Z,29.23
2022-12-31T00:44:05.786Z,36.38
2022-12-31T00:44:37.871Z,31.83
2022-12-31T00:45:10.944Z,31.45
2022-12-31T00:45:45.643Z,28.77
2022-12-31T00:46:18.603Z,31.90
2022-12-31T00:46:50.913Z,29.85
2022-12-31T00:47:26.504Z,28.63
2022-12-31T00:47:58.667Z,34.15
2022-12-31T00:48:31.016Z,29.83
2022-12-31T00:49:05.740Z,25.88
2022-12-31T00:49:37.952Z,39.53
2022-12-31T00:50:10.412Z,36.03
2022-12-31T00:50:45.159Z,35.03
2022-12-31T00:51:19.562Z,34.00
2022-12-31T00:51:54.519Z,28.33
2022-12-31T00:52:26.586Z,40.35
2022-12-31T00:52:58.719Z,36.90
2022-12-31T00:53:33.639Z,32.03
2022-12-31T00:54:06.097Z,48.88
2022-12-31T00:54:38.388Z,38.35
2022-12-31T00:55:13.128Z,35.65
2022-12-31T00:55:45.199Z,31.55
2022-12-31T00:56:20.212Z,41.33
2022-12-31T00:56:54.934Z,42.90
2022-12-31T00:57:27.017Z,36.00
2022-12-31T00:57:59.160Z,32.10
2022-12-31T00:58:36.513Z,31.75
2022-12-31T00:59:08.616Z,28.95
2022-12-31T00:59:40.741Z,34.40
2022-12-31T01:00:17.045Z,35.97
2022-12-31T01:00:49.132Z,26.73
2022-12-31T01:01:23.080Z,31.45
2022-12-31T01:01:58.033Z,33.83
2022-12-31T01:02:30.371Z,27.23
2022-12-31T01:03:02.692Z,42.28
2022-12-31T01:03:37.485Z,35.58
2022-12-31T01:04:12.436Z,32.72
2022-12-31T01:04:47.423Z,31.30
2022-12-31T01:05:19.515Z,39.10
2022-12-31T01:05:51.658Z,35.67
2022-12-31T01:06:26.650Z,43.53
2022-12-31T01:06:58.781Z,30.60
2022-12-31T01:07:33.472Z,40.85
2022-12-31T01:08:06.137Z,30.20
2022-12-31T01:08:38.345Z,29.35
2022-12-31T01:09:14.705Z,36.17
2022-12-31T01:09:46.820Z,31.90
2022-12-31T01:10:40.268Z,39.63
2022-12-31T01:11:19.331Z,31.88
2022-12-31T01:11:54.518Z,35.88
2022-12-31T01:12:26.644Z,54.58
2022-12-31T01:12:59.760Z,46.47
2022-12-31T01:13:37.138Z,35.08
2022-12-31T01:14:11.100Z,41.78
2022-12-31T01:14:47.075Z,80.18
2022-12-31T01:15:19.177Z,44.60
2022-12-31T01:15:51.416Z,31.40
2022-12-31T01:16:28.583Z,38.60
2022-12-31T01:17:00.756Z,30.95
2022-12-31T01:17:35.562Z,46.97
2022-12-31T01:18:08.899Z,31.17
2022-12-31T01:18:41.162Z,36.38
2022-12-31T01:19:18.561Z,26.95
2022-12-31T01:19:50.948Z,45.60
2022-12-31T01:20:23.066Z,33.55
2022-12-31T01:20:55.250Z,30.45
2022-12-31T01:21:30.106Z,50.97
2022-12-31T01:22:02.324Z,35.15
2022-12-31T01:22:37.086Z,38.03
2022-12-31T01:23:10.866Z,31.08
2022-12-31T01:23:42.997Z,35.92
2022-12-31T01:24:18.510Z,35.92
2022-12-31T01:24:50.662Z,32.45
2022-12-31T01:25:22.759Z,30.55
2022-12-31T01:25:57.433Z,31.83
2022-12-31T01:26:30.033Z,33.50
2022-12-31T01:27:04.794Z,45.20
2022-12-31T01:27:36.923Z,37.35
2022-12-31T01:28:09.720Z,31.20
2022-12-31T01:28:47.023Z,35.67
2022-12-31T01:29:19.391Z,33.85
2022-12-31T01:29:51.473Z,37.15
2022-12-31T01:30:26.130Z,27.67
2022-12-31T01:30:59.013Z,26.52
2022-12-31T01:31:31.475Z,33.70
2022-12-31T01:32:06.469Z,35.17
2022-12-31T01:32:38.571Z,40.38
2022-12-31T01:33:10.710Z,56.88
2022-12-31T01:33:45.961Z,44.15
2022-12-31T01:34:18.072Z,28.25
2022-12-31T01:34:50.161Z,40.25
2022-12-31T01:35:24.927Z,32.88
2022-12-31T01:36:02.417Z,36.83
2022-12-31T01:36:38.548Z,28.17
2022-12-31T01:37:10.706Z,32.42
2022-12-31T01:37:42.799Z,33.38
2022-12-31T01:38:21.311Z,31.33
2022-12-31T01:38:54.482Z,41.10
2022-12-31T01:39:29.441Z,37.75
2022-12-31T01:40:01.614Z,33.00
2022-12-31T01:40:37.571Z,33.60
2022-12-31T01:41:12.778Z,30.05
2022-12-31T01:41:49.544Z,46.47
2022-12-31T01:42:21.687Z,32.92
2022-12-31T01:42:57.650Z,36.50
2022-12-31T01:43:50.615Z,29.55
2022-12-31T01:44:48.943Z,34.63
2022-12-31T01:45:21.365Z,29.58
2022-12-31T01:45:57.361Z,48.25
2022-12-31T01:46:36.613Z,34.95
2022-12-31T01:47:15.680Z,44.38
2022-12-31T01:47:54.644Z,35.10
2022-12-31T01:48:28.629Z,39.13
2022-12-31T01:49:05.034Z,44.00
2022-12-31T01:49:43.391Z,41.63
2022-12-31T01:50:20.328Z,37.67
2022-12-31T01:50:56.535Z,38.30
2022-12-31T01:51:31.523Z,40.78
2022-12-31T01:52:08.968Z,40.47
2022-12-31T01:52:48.237Z,31.95
2022-12-31T01:53:21.164Z,44.83
2022-12-31T01:53:53.535Z,38.85
2022-12-31T01:54:30.025Z,42.17
2022-12-31T01:55:08.107Z,43.90
2022-12-31T01:55:50.098Z,31.65
2022-12-31T01:56:23.963Z,34.28
2022-12-31T01:56:57.492Z,31.15
2022-12-31T01:57:32.883Z,34.55
2022-12-31T01:58:10.474Z,38.60
2022-12-31T01:58:51.327Z,36.28
2022-12-31T01:59:25.730Z,34.45
2022-12-31T01:59:59.888Z,31.35
2022-12-31T02:00:35.194Z,33.55
2022-12-31T02:01:09.370Z,32.22
2022-12-31T02:01:41.672Z,34.78
2022-12-31T02:02:18.503Z,38.08
2022-12-31T02:02:51.169Z,31.95
2022-12-31T02:03:24.428Z,40.53
2022-12-31T02:04:00.089Z,32.08
2022-12-31T02:04:32.272Z,40.65
2022-12-31T02:05:13.669Z,26.63
2022-12-31T02:05:53.807Z,39.30
2022-12-31T02:06:32.438Z,34.53
2022-12-31T02:07:09.688Z,33.70
2022-12-31T02:07:43.398Z,37.40
2022-12-31T02:08:18.729Z,45.35
2022-12-31T02:08:51.098Z,32.47
2022-12-31T02:09:23.424Z,34.22
2022-12-31T02:09:58.210Z,48.15
2022-12-31T02:10:30.307Z,30.45
2022-12-31T02:11:02.474Z,41.20
2022-12-31T02:11:38.359Z,36.03
2022-12-31T02:12:11.115Z,42.85
2022-12-31T02:12:43.372Z,33.90
2022-12-31T02:13:18.716Z,44.28
2022-12-31T02:13:58.635Z,33.83
2022-12-31T02:14:36.574Z,34.33
2022-12-31T02:15:09.747Z,39.38
2022-12-31T02:15:52.275Z,28.20
2022-12-31T02:16:34.604Z,37.80
2022-12-31T02:17:14.939Z,33.92
2022-12-31T02:17:56.445Z,38.40
2022-12-31T02:18:37.544Z,40.13
2022-12-31T02:19:38.498Z,34.58
2022-12-31T02:21:36.364Z,34.00
2022-12-31T02:22:18.072Z,33.75
2022-12-31T02:23:11.093Z,33.53
2022-12-31T02:24:12.603Z,27.70
2022-12-31T02:25:04.984Z,39.03
2022-12-31T02:25:53.526Z,38.30
2022-12-31T02:26:43.395Z,31.77
2022-12-31T02:27:31.878Z,35.83
2022-12-31T02:28:20.189Z,39.38
2022-12-31T02:29:17.828Z,33.95
2022-12-31T02:30:11.365Z,34.45
2022-12-31T02:30:48.097Z,37.75
2022-12-31T02:31:26.829Z,34.05
2022-12-31T02:32:05.646Z,30.50
2022-12-31T02:32:58.356Z,45.83
2022-12-31T02:33:38.409Z,31.98
2022-12-31T02:34:16.471Z,32.67
2022-12-31T02:34:52.664Z,47.05
2022-12-31T02:35:32.400Z,37.33
2022-12-31T02:36:11.353Z,39.70
2022-12-31T02:36:47.312Z,35.15
2022-12-31T02:37:24.758Z,30.70
2022-12-31T02:38:01.935Z,37.53
2022-12-31T02:38:43.290Z,36.70
2022-12-31T02:39:16.005Z,30.58
2022-12-31T02:39:49.257Z,40.60
2022-12-31T02:40:23.017Z,38.28
2022-12-31T02:40:57.979Z,40.00
2022-12-31T02:41:45.140Z,33.83
2022-12-31T02:42:17.431Z,36.20
2022-12-31T02:42:55.542Z,46.15
2022-12-31T02:43:28.427Z,44.95
2022-12-31T02:44:00.746Z,41.70
2022-12-31T02:44:37.931Z,41.78
2022-12-31T02:45:16.441Z,38.35
2022-12-31T02:46:00.978Z,40.83
2022-12-31T02:46:43.051Z,34.25
2022-12-31T02:47:23.135Z,35.17
2022-12-31T02:48:09.051Z,37.30
2022-12-31T02:48:49.277Z,49.03
2022-12-31T02:49:31.628Z,35.63
2022-12-31T02:50:18.867Z,41.55
2022-12-31T02:50:58.211Z,42.03
2022-12-31T02:51:42.831Z,33.13
2022-12-31T02:52:22.843Z,32.38
2022-12-31T02:53:02.970Z,38.40
2022-12-31T02:54:05.664Z,34.75
2022-12-31T02:54:48.892Z,38.38
2022-12-31T02:55:33.719Z,40.50
2022-12-31T02:56:12.791Z,43.38
2022-12-31T02:56:59.567Z,36.00
2022-12-31T02:57:44.093Z,45.75
2022-12-31T02:58:48.090Z,35.78
2022-12-31T02:59:38.476Z,34.10
2022-12-31T03:00:30.888Z,39.83
2022-12-31T03:01:18.192Z,45.60
2022-12-31T03:02:10.470Z,29.95
2022-12-31T03:02:48.444Z,33.30
2022-12-31T03:03:21.725Z,47.63
2022-12-31T03:04:14.094Z,35.70
2022-12-31T03:04:53.164Z,37.17
2022-12-31T03:05:29.536Z,37.90
2022-12-31T03:06:03.364Z,40.25
2022-12-31T03:06:35.682Z,38.17
2022-12-31T03:07:12.801Z,37.80
2022-12-31T03:07:45.761Z,44.05
2022-12-31T03:08:22.624Z,42.20
2022-12-31T03:09:09.832Z,42.20
2022-12-31T03:09:44.697Z,35.55
2022-12-31T03:10:17.139Z,40.92
2022-12-31T03:10:49.513Z,33.33
2022-12-31T03:11:36.445Z,52.85
2022-12-31T03:12:35.184Z,32.53
2022-12-31T03:13:09.883Z,32.97
2022-12-31T03:13:42.009Z,34.78
2022-12-31T03:14:14.289Z,36.03
2022-12-31T03:14:46.593Z,36.47
2022-12-31T03:15:26.262Z,37.13
2022-12-31T03:15:58.357Z,35.17
2022-12-31T03:16:30.568Z,34.88
2022-12-31T03:17:05.271Z,31.98
2022-12-31T03:17:37.394Z,34.55
2022-12-31T03:18:14.149Z,35.75
2022-12-31T03:19:02.151Z,61.13
2022-12-31T03:19:49.330Z,41.08
2022-12-31T03:20:39.420Z,35.97
2022-12-31T03:21:28.645Z,38.17
2022-12-31T03:22:15.785Z,34.15
2022-12-31T03:22:47.876Z,37.55
2022-12-31T03:23:25.395Z,36.40
2022-12-31T03:24:12.794Z,31.23
2022-12-31T03:25:00.062Z,45.53
2022-12-31T03:25:35.367Z,38.60
2022-12-31T03:26:10.094Z,27.05
2022-12-31T03:26:42.206Z,40.35
2022-12-31T03:27:14.307Z,48.58
2022-12-31T03:27:47.335Z,34.13
2022-12-31T03:28:24.674Z,35.80
2022-12-31T03:28:56.765Z,41.28
2022-12-31T03:29:28.851Z,41.80
2022-12-31T03:30:00.944Z,35.25
2022-12-31T03:30:40.268Z,51.03
2022-12-31T03:31:12.557Z,37.22
2022-12-31T03:31:44.711Z,43.67
2022-12-31T03:32:17.035Z,39.88
2022-12-31T03:32:52.400Z,48.83
2022-12-31T03:33:25.881Z,31.00
2022-12-31T03:34:00.575Z,40.90
2022-12-31T03:34:32.669Z,35.63
2022-12-31T03:35:06.477Z,45.55
2022-12-31T03:35:42.681Z,49.22
2022-12-31T03:36:15.774Z,45.67
2022-12-31T03:36:47.926Z,41.95
2022-12-31T03:37:22.582Z,39.22
2022-12-31T03:37:54.907Z,41.85
2022-12-31T03:38:29.582Z,46.72
2022-12-31T03:39:01.679Z,39.85
2022-12-31T03:39:33.977Z,38.63
2022-12-31T03:40:08.488Z,40.55
2022-12-31T03:40:44.548Z,42.60
2022-12-31T03:41:16.678Z,36.00
2022-12-31T03:41:48.752Z,42.13
2022-12-31T03:42:20.859Z,35.67
2022-12-31T03:42:55.856Z,53.13
2022-12-31T03:43:27.988Z,38.20
2022-12-31T03:44:00.131Z,48.40
2022-12-31T03:44:34.801Z,47.10
2022-12-31T03:45:10.607Z,43.20
2022-12-31T03:45:47.988Z,42.33
2022-12-31T03:46:20.331Z,43.63
2022-12-31T03:46:52.456Z,40.00
2022-12-31T03:47:24.535Z,36.78
2022-12-31T03:47:59.292Z,43.53
2022-12-31T03:48:31.420Z,44.60
2022-12-31T03:49:03.525Z,35.40
2022-12-31T03:49:35.628Z,41.97
2022-12-31T03:50:12.366Z,44.65
2022-12-31T03:50:44.836Z,35.17
2022-12-31T03:51:16.971Z,35.22
2022-12-31T03:51:51.677Z,35.08
2022-12-31T03:52:23.897Z,37.15
2022-12-31T03:52:58.786Z,44.10
2022-12-31T03:53:30.923Z,37.17
2022-12-31T03:54:03.076Z,40.75
2022-12-31T03:54:37.783Z,42.72
2022-12-31T03:55:11.320Z,45.97
2022-12-31T03:55:46.123Z,49.25
2022-12-31T03:56:18.263Z,44.85
2022-12-31T03:56:53.004Z,41.70
2022-12-31T03:57:30.039Z,38.72
2022-12-31T03:58:02.129Z,38.38
2022-12-31T03:58:36.831Z,40.78
2022-12-31T03:59:08.892Z,53.95
2022-12-31T03:59:41.049Z,42.85
2022-12-31T04:00:20.413Z,52.47
2022-12-31T04:00:55.113Z,31.40
2022-12-31T04:01:27.548Z,43.85
2022-12-31T04:01:59.849Z,41.35
2022-12-31T04:02:34.928Z,48.85
2022-12-31T04:03:07.179Z,40.38
2022-12-31T04:03:42.023Z,44.72
2022-12-31T04:04:14.115Z,50.55
2022-12-31T04:04:46.208Z,41.58
2022-12-31T04:05:22.477Z,39.70
2022-12-31T04:05:55.464Z,36.85
2022-12-31T04:06:27.725Z,31.33
2022-12-31T04:07:02.519Z,49.08
2022-12-31T04:07:34.748Z,38.42
2022-12-31T04:08:09.425Z,49.60
2022-12-31T04:08:41.561Z,30.27
2022-12-31T04:09:13.707Z,45.33
2022-12-31T04:09:48.381Z,43.05
2022-12-31T04:10:20.981Z,42.65
2022-12-31T04:10:55.720Z,33.70
2022-12-31T04:11:27.824Z,46.47
2022-12-31T04:11:59.931Z,40.53
2022-12-31T04:12:36.300Z,40.45
2022-12-31T04:13:08.414Z,42.83
2022-12-31T04:13:40.539Z,36.28
2022-12-31T04:14:12.649Z,31.35
2022-12-31T04:14:47.324Z,51.85
2022-12-31T04:15:21.060Z,39.13
2022-12-31T04:15:58.401Z,61.00
2022-12-31T04:16:32.335Z,39.92
2022-12-31T04:17:04.837Z,45.65
2022-12-31T04:17:39.605Z,34.92
2022-12-31T04:18:11.719Z,57.22
2022-12-31T04:18:43.846Z,36.03
2022-12-31T04:19:18.573Z,49.53
2022-12-31T04:19:50.704Z,35.55
2022-12-31T04:20:25.467Z,52.10
2022-12-31T04:21:02.079Z,44.85
2022-12-31T04:21:35.302Z,52.25
2022-12-31T04:22:10.569Z,31.92
2022-12-31T04:22:42.735Z,40.08
2022-12-31T04:23:19.461Z,34.30
2022-12-31T04:23:51.567Z,59.50
2022-12-31T04:24:24.112Z,40.55
2022-12-31T04:24:58.763Z,40.13
2022-12-31T04:25:30.882Z,48.35
2022-12-31T04:26:02.993Z,41.53
2022-12-31T04:26:38.077Z,43.28
2022-12-31T04:27:10.278Z,38.15
2022-12-31T04:27:43.958Z,48.08
2022-12-31T04:28:18.721Z,57.50
2022-12-31T04:28:50.796Z,35.10
2022-12-31T04:29:23.117Z,38.38
2022-12-31T04:29:57.804Z,46.13
2022-12-31T04:30:29.913Z,45.65
2022-12-31T04:31:04.731Z,40.78
2022-12-31T04:31:36.951Z,49.65
2022-12-31T04:32:12.553Z,45.30
2022-12-31T04:32:44.841Z,46.55
2022-12-31T04:33:17.433Z,43.33
2022-12-31T04:33:49.604Z,42.47
2022-12-31T04:34:24.659Z,40.05
2022-12-31T04:34:56.840Z,37.30
2022-12-31T04:35:28.979Z,48.78
2022-12-31T04:36:04.149Z,39.92
2022-12-31T04:36:36.368Z,44.67
2022-12-31T04:37:11.084Z,41.35
2022-12-31T04:37:43.222Z,47.10
2022-12-31T04:38:15.464Z,52.88
2022-12-31T04:38:50.189Z,42.20
2022-12-31T04:39:22.338Z,42.65
2022-12-31T04:39:57.930Z,36.65
2022-12-31T04:40:56.669Z,45.20
2022-12-31T04:41:29.004Z,42.65
2022-12-31T04:42:01.106Z,36.40
2022-12-31T04:42:35.879Z,41.03
2022-12-31T04:43:08.023Z,41.58
2022-12-31T04:43:40.186Z,42.17
2022-12-31T04:44:14.965Z,40.38
2022-12-31T04:44:47.084Z,46.70
2022-12-31T04:45:21.795Z,40.80
2022-12-31T04:45:54.009Z,51.20
2022-12-31T04:46:30.818Z,42.08
2022-12-31T04:47:05.524Z,46.17
2022-12-31T04:47:37.684Z,45.05
2022-12-31T04:48:10.035Z,36.83
2022-12-31T04:48:42.332Z,47.45
2022-12-31T04:49:18.211Z,41.58
2022-12-31T04:49:50.319Z,41.42
2022-12-31T04:50:22.460Z,44.55
2022-12-31T04:50:57.127Z,41.10
2022-12-31T04:51:30.791Z,47.90
2022-12-31T04:52:05.942Z,52.95
2022-12-31T04:52:42.751Z,45.05
2022-12-31T04:53:15.281Z,43.17
2022-12-31T04:53:50.320Z,40.35
2022-12-31T04:54:22.599Z,38.05
2022-12-31T04:54:57.301Z,54.20
2022-12-31T04:55:29.491Z,50.72
2022-12-31T04:56:01.782Z,41.85
2022-12-31T04:56:37.006Z,41.90
2022-12-31T04:57:09.114Z,49.17
2022-12-31T04:57:41.725Z,47.65
2022-12-31T04:58:13.811Z,44.08
2022-12-31T04:58:48.571Z,42.88
2022-12-31T04:59:20.715Z,40.45
2022-12-31T04:59:52.844Z,39.40
2022-12-31T05:00:27.552Z,44.45
2022-12-31T05:00:59.911Z,29.40
2022-12-31T05:01:37.393Z,51.58
2022-12-31T05:02:09.844Z,40.85
2022-12-31T05:02:42.226Z,43.03
2022-12-31T05:03:14.492Z,46.42
2022-12-31T05:03:49.669Z,42.90
2022-12-31T05:04:21.757Z,40.50
2022-12-31T05:04:53.895Z,40.08
2022-12-31T05:05:28.613Z,41.38
2022-12-31T05:06:02.136Z,37.15
2022-12-31T05:06:34.238Z,43.50
2022-12-31T05:07:09.181Z,56.00
2022-12-31T05:07:41.273Z,42.83
2022-12-31T05:08:14.195Z,48.47
2022-12-31T05:08:49.558Z,44.15
2022-12-31T05:09:24.218Z,51.00
2022-12-31T05:09:56.392Z,50.45
2022-12-31T05:10:31.575Z,48.40
2022-12-31T05:11:03.892Z,44.03
2022-12-31T05:11:37.977Z,44.80
2022-12-31T05:12:12.625Z,42.88
2022-12-31T05:12:44.723Z,48.63
2022-12-31T05:13:17.153Z,57.20
2022-12-31T05:13:51.838Z,39.63
2022-12-31T05:14:24.059Z,46.75
2022-12-31T05:14:56.334Z,41.10
2022-12-31T05:15:31.078Z,53.22
2022-12-31T05:16:04.242Z,42.45
2022-12-31T05:16:41.529Z,42.17
2022-12-31T05:17:13.700Z,40.00
2022-12-31T05:17:45.859Z,46.25
2022-12-31T05:18:18.363Z,41.22
2022-12-31T05:18:53.031Z,40.63
2022-12-31T05:19:26.242Z,49.83
2022-12-31T05:19:58.384Z,42.03
2022-12-31T05:20:33.236Z,46.70
2022-12-31T05:21:06.512Z,53.97
2022-12-31T05:21:41.260Z,47.80
2022-12-31T05:22:28.511Z,44.35
2022-12-31T05:23:00.855Z,34.35
2022-12-31T05:23:35.586Z,46.70
2022-12-31T05:24:08.472Z,36.15
2022-12-31T05:24:40.577Z,49.15
2022-12-31T05:25:15.253Z,40.85
2022-12-31T05:25:48.517Z,59.53
2022-12-31T05:26:23.326Z,41.58
2022-12-31T05:26:55.504Z,46.15
2022-12-31T05:27:31.202Z,54.15
2022-12-31T05:28:06.500Z,48.15
2022-12-31T05:28:38.938Z,52.05
2022-12-31T05:29:13.655Z,40.47
2022-12-31T05:29:45.762Z,61.55
2022-12-31T05:30:18.761Z,81.53
2022-12-31T05:30:54.370Z,59.63
2022-12-31T05:31:27.035Z,31.52
2022-12-31T05:32:01.817Z,46.90
2022-12-31T05:32:37.527Z,39.28
2022-12-31T05:33:09.829Z,46.78
2022-12-31T05:33:41.992Z,52.75
2022-12-31T05:34:16.737Z,47.22
2022-12-31T05:34:48.842Z,63.90
2022-12-31T05:35:20.963Z,57.90
2022-12-31T05:35:57.995Z,60.05
2022-12-31T05:36:32.121Z,50.03
2022-12-31T05:37:04.335Z,41.25
2022-12-31T05:37:36.665Z,52.17
2022-12-31T05:38:11.610Z,43.25
2022-12-31T05:38:43.758Z,43.13
2022-12-31T05:39:15.998Z,50.38
2022-12-31T05:39:50.747Z,61.30
2022-12-31T05:40:23.077Z,49.35
2022-12-31T05:41:02.841Z,56.60
2022-12-31T05:41:37.675Z,58.22
2022-12-31T05:42:09.789Z,47.72
2022-12-31T05:42:41.975Z,65.45
2022-12-31T05:43:16.741Z,53.85
2022-12-31T05:43:50.366Z,54.05
2022-12-31T05:44:22.444Z,39.63
2022-12-31T05:44:57.177Z,55.20
2022-12-31T05:45:31.165Z,43.60
2022-12-31T05:46:07.538Z,49.47
2022-12-31T05:46:39.804Z,36.60
2022-12-31T05:47:15.047Z,50.30
2022-12-31T05:47:49.915Z,61.45
2022-12-31T05:48:22.389Z,44.90
2022-12-31T05:48:57.138Z,45.92
2022-12-31T05:49:29.233Z,51.38
2022-12-31T05:50:01.424Z,48.85
2022-12-31T05:50:36.125Z,46.05
2022-12-31T05:51:09.429Z,63.78
2022-12-31T05:51:41.671Z,49.97
2022-12-31T05:52:16.511Z,38.03
2022-12-31T05:52:48.806Z,59.95
2022-12-31T05:53:20.935Z,43.58
2022-12-31T05:53:55.720Z,66.03
2022-12-31T05:54:27.890Z,53.83
2022-12-31T05:55:00.037Z,64.68
2022-12-31T05:55:34.762Z,60.30
2022-12-31T05:56:07.117Z,57.20
2022-12-31T05:56:39.244Z,53.30
2022-12-31T05:57:14.170Z,56.28
2022-12-31T05:57:46.317Z,59.08
2022-12-31T05:58:21.318Z,59.88
2022-12-31T05:58:53.506Z,62.85
2022-12-31T05:59:25.799Z,58.90
2022-12-31T05:59:57.977Z,60.25
2022-12-31T06:00:32.643Z,60.83
2022-12-31T06:01:05.145Z,58.38
2022-12-31T06:01:37.603Z,61.20
2022-12-31T06:02:12.431Z,61.75
2022-12-31T06:02:47.234Z,68.20
2022-12-31T06:03:22.253Z,81.43
2022-12-31T06:03:55.421Z,53.67
2022-12-31T06:04:27.768Z,71.30
2022-12-31T06:05:03.026Z,61.33
2022-12-31T06:05:35.189Z,63.20
2022-12-31T06:06:10.840Z,59.17
2022-12-31T06:06:43.087Z,69.18
2022-12-31T06:07:16.518Z,59.53
2022-12-31T06:07:51.207Z,69.38
2022-12-31T06:08:24.178Z,69.75
2022-12-31T06:08:56.312Z,66.25
2022-12-31T06:09:31.001Z,62.00
2022-12-31T06:10:03.192Z,58.58
2022-12-31T06:10:37.899Z,68.97
2022-12-31T06:11:10.096Z,62.90
2022-12-31T06:11:42.335Z,50.92
2022-12-31T06:12:17.180Z,58.58
2022-12-31T06:12:49.276Z,61.03
2022-12-31T06:13:21.362Z,62.22
2022-12-31T06:13:56.201Z,62.35
2022-12-31T06:14:28.301Z,64.05
2022-12-31T06:15:00.663Z,72.18
2022-12-31T06:15:40.438Z,69.72
2022-12-31T06:16:13.026Z,75.97
2022-12-31T06:16:45.220Z,62.42
2022-12-31T06:17:20.732Z,70.60
2022-12-31T06:17:55.498Z,60.67
2022-12-31T06:18:27.570Z,63.38
2022-12-31T06:19:02.553Z,58.08
2022-12-31T06:19:34.777Z,49.92
2022-12-31T06:20:12.848Z,76.40
2022-12-31T06:20:47.938Z,76.78
2022-12-31T06:21:21.461Z,60.83
2022-12-31T06:21:53.565Z,61.33
2022-12-31T06:22:28.430Z,67.80
2022-12-31T06:23:00.528Z,52.90
2022-12-31T06:23:32.667Z,71.88
2022-12-31T06:24:08.202Z,55.17
2022-12-31T06:24:40.330Z,72.30
2022-12-31T06:25:15.121Z,76.53
2022-12-31T06:25:47.213Z,61.17
2022-12-31T06:26:19.307Z,76.07
2022-12-31T06:26:54.010Z,70.22
2022-12-31T06:27:26.164Z,72.40
2022-12-31T06:27:58.341Z,63.33
2022-12-31T06:28:35.823Z,76.00
2022-12-31T06:29:08.086Z,71.50
2022-12-31T06:29:40.393Z,87.93
2022-12-31T06:30:16.508Z,74.57
2022-12-31T06:30:49.037Z,58.60
2022-12-31T06:31:21.276Z,57.85
2022-12-31T06:31:53.402Z,59.42
2022-12-31T06:32:28.173Z,80.18
2022-12-31T06:33:02.983Z,52.13
2022-12-31T06:33:35.706Z,65.13
2022-12-31T06:34:10.575Z,48.63
2022-12-31T06:34:42.664Z,62.80
2022-12-31T06:35:17.980Z,69.50
2022-12-31T06:35:55.141Z,78.68
2022-12-31T06:36:27.290Z,70.85
2022-12-31T06:37:02.379Z,66.50
2022-12-31T06:37:34.837Z,54.95
2022-12-31T06:38:06.977Z,89.70
2022-12-31T06:38:43.330Z,98.60
2022-12-31T06:39:15.470Z,59.53
2022-12-31T06:39:47.784Z,64.13
2022-12-31T06:40:25.464Z,72.82
2022-12-31T06:40:57.559Z,67.93
2022-12-31T06:41:29.664Z,72.85
2022-12-31T06:42:01.844Z,45.60
2022-12-31T06:42:36.520Z,58.92
2022-12-31T06:43:08.653Z,54.08
2022-12-31T06:43:41.536Z,74.78
2022-12-31T06:44:16.412Z,55.83
2022-12-31T06:44:49.059Z,69.95
2022-12-31T06:45:21.280Z,58.50
2022-12-31T06:45:55.977Z,74.22
2022-12-31T06:46:28.085Z,64.35
2022-12-31T06:47:00.333Z,82.63
2022-12-31T06:47:35.152Z,70.75
2022-12-31T06:48:10.038Z,73.75
2022-12-31T06:48:44.734Z,60.25
2022-12-31T06:49:19.729Z,58.05
2022-12-31T06:49:52.319Z,63.63
2022-12-31T06:50:24.470Z,83.32
2022-12-31T06:50:59.334Z,69.65
2022-12-31T06:51:32.938Z,55.88
2022-12-31T06:52:05.380Z,62.47
2022-12-31T06:52:40.157Z,72.00
2022-12-31T06:53:12.346Z,69.55
2022-12-31T06:53:44.880Z,53.83
2022-12-31T06:54:19.621Z,49.88
2022-12-31T06:54:52.357Z,64.47
2022-12-31T06:55:25.627Z,66.47
2022-12-31T06:56:00.993Z,79.00
2022-12-31T06:56:34.991Z,75.10
2022-12-31T06:57:12.136Z,62.63
2022-12-31T06:57:44.829Z,61.17
2022-12-31T06:58:18.464Z,56.00
2022-12-31T06:58:54.196Z,65.05
2022-12-31T06:59:29.541Z,63.53
2022-12-31T07:00:05.177Z,70.95
2022-12-31T07:00:37.674Z,64.72
2022-12-31T07:01:27.559Z,63.63
2022-12-31T07:02:20.046Z,92.63
2022-12-31T07:03:19.310Z,89.32
2022-12-31T07:04:01.264Z,86.88
2022-12-31T07:05:01.779Z,72.80
2022-12-31T07:05:45.456Z,72.30
2022-12-31T07:06:29.241Z,87.90
2022-12-31T07:07:08.224Z,91.03
2022-12-31T07:07:50.659Z,68.78
2022-12-31T07:08:40.867Z,90.15
2022-12-31T07:09:22.325Z,66.80
2022-12-31T07:10:01.058Z,69.40
2022-12-31T07:10:44.028Z,77.07
2022-12-31T07:11:21.262Z,73.13
2022-12-31T07:12:00.854Z,66.95
2022-12-31T07:12:52.283Z,79.03
2022-12-31T07:13:42.808Z,78.00
2022-12-31T07:14:29.917Z,73.20
2022-12-31T07:15:08.431Z,69.72
2022-12-31T07:15:50.509Z,89.85
2022-12-31T07:16:37.499Z,69.30
2022-12-31T07:17:24.180Z,69.20
2022-12-31T07:18:09.408Z,76.13
2022-12-31T07:18:48.103Z,65.22
2022-12-31T07:19:31.922Z,83.55
2022-12-31T07:20:09.024Z,71.18
2022-12-31T07:20:41.950Z,68.50
2022-12-31T07:21:19.054Z,72.03
2022-12-31T07:21:53.405Z,67.55
2022-12-31T07:22:26.504Z,65.07
2022-12-31T07:23:01.809Z,77.30
2022-12-31T07:23:34.683Z,71.30
2022-12-31T07:24:11.379Z,76.68
2022-12-31T07:24:44.700Z,67.40
2022-12-31T07:25:18.535Z,71.55
2022-12-31T07:25:59.212Z,67.28
2022-12-31T07:26:52.630Z,64.35
2022-12-31T07:27:44.850Z,81.43
2022-12-31T07:28:28.483Z,67.32
2022-12-31T07:29:12.069Z,81.32
2022-12-31T07:30:00.808Z,66.93
2022-12-31T07:30:41.949Z,63.58
2022-12-31T07:32:02.201Z,84.45
2022-12-31T07:32:56.500Z,57.80
2022-12-31T07:33:43.742Z,58.65
2022-12-31T07:34:28.604Z,67.95
2022-12-31T07:35:09.698Z,57.88
2022-12-31T07:35:53.556Z,84.25
2022-12-31T07:36:49.431Z,66.50
2022-12-31T07:37:36.441Z,93.43
2022-12-31T07:38:18.496Z,84.47
2022-12-31T07:38:59.478Z,86.32
2022-12-31T07:39:41.934Z,70.72
2022-12-31T07:40:19.035Z,64.15
2022-12-31T07:41:04.135Z,87.15
2022-12-31T07:41:56.588Z,71.90